Time;durP1;ratioP1;P1;durP2;ratioP2;P2;SDS_P1;SDS_P2;PMS_P1;PMS_P2;Temp;Humidity;BMP_temperature;BMP_pressure;BME280_temperature;BME280_humidity;BME280_pressure;Samples;Min_cycle;Max_cycle;Signal;HPM_P1;HPM_P2
2022/04/25 00:00:35;;;;;;;7.97;4.80;;;11.40;1.00;;;;;;5058382;28;20247;-84
2022/04/25 00:03:02;;;;;;;8.57;5.30;;;11.30;1.00;;;;;;5055491;28;20196;-85
2022/04/25 00:05:28;;;;;;;7.87;5.00;;;11.20;1.00;;;;;;5056549;28;20200;-82
2022/04/25 00:07:54;;;;;;;8.33;4.77;;;11.20;1.00;;;;;;5055915;28;20201;-84
2022/04/25 00:10:20;;;;;;;6.97;4.93;;;11.20;1.00;;;;;;5054540;28;20173;-82
2022/04/25 00:12:45;;;;;;;7.77;4.87;;;11.20;1.00;;;;;;5056117;28;20187;-83
2022/04/25 00:15:12;;;;;;;10.97;4.80;;;11.30;1.00;;;;;;5063619;28;20153;-85
2022/04/25 00:17:38;;;;;;;7.50;4.77;;;11.20;1.00;;;;;;5075201;28;20213;-83
2022/04/25 00:20:08;;;;;;;7.33;5.20;;;11.10;1.00;;;;;;5062867;28;20172;-85
2022/04/25 00:22:34;;;;;;;8.33;4.90;;;11.10;1.00;;;;;;5061432;28;20189;-84
2022/04/25 00:25:02;;;;;;;8.10;5.90;;;11.10;1.00;;;;;;5070910;28;20278;-82
2022/04/25 00:27:29;;;;;;;7.43;4.87;;;11.00;1.00;;;;;;5071894;28;20613;-83
2022/04/25 00:30:01;;;;;;;9.40;5.00;;;11.20;1.00;;;;;;5056474;28;20169;-83
2022/04/25 00:32:27;;;;;;;9.10;5.17;;;11.00;1.00;;;;;;5056060;28;20165;-84
2022/04/25 00:34:52;;;;;;;8.03;4.90;;;11.00;1.00;;;;;;5055635;28;20230;-85
2022/04/25 00:37:18;;;;;;;8.93;5.23;;;10.90;1.00;;;;;;5055368;28;20223;-85
2022/04/25 00:39:44;;;;;;;8.77;4.67;;;10.90;1.00;;;;;;5058263;28;20677;-85
2022/04/25 00:42:10;;;;;;;7.27;4.73;;;10.80;1.00;;;;;;5056492;28;20251;-85
2022/04/25 00:44:37;;;;;;;9.43;5.57;;;10.80;1.00;;;;;;5056090;28;20199;-85
2022/04/25 00:47:04;;;;;;;10.13;5.33;;;10.90;1.00;;;;;;5056572;28;20172;-85
2022/04/25 00:49:31;;;;;;;7.60;4.80;;;10.70;1.00;;;;;;5054935;28;20204;-85
2022/04/25 00:51:56;;;;;;;8.90;5.70;;;10.80;1.00;;;;;;5054703;28;20521;-81
2022/04/25 00:54:23;;;;;;;9.73;5.23;;;10.80;1.00;;;;;;5070663;28;20188;-84
2022/04/25 00:56:49;;;;;;;8.53;5.07;;;10.70;1.00;;;;;;5073210;28;20266;-85
2022/04/25 00:59:17;;;;;;;7.53;5.13;;;10.50;1.00;;;;;;5059236;28;20199;-85
2022/04/25 01:01:46;;;;;;;10.13;5.97;;;10.50;1.00;;;;;;5055604;28;20180;-83
2022/04/25 01:04:12;;;;;;;13.67;5.60;;;10.50;1.00;;;;;;5053829;28;20230;-84
2022/04/25 01:06:38;;;;;;;12.77;5.70;;;10.50;1.00;;;;;;5054924;28;20173;-85
2022/04/25 01:09:05;;;;;;;7.50;4.97;;;10.50;1.00;;;;;;5061607;28;20169;-85
2022/04/25 01:11:31;;;;;;;8.97;5.60;;;10.50;1.00;;;;;;5068706;28;20161;-84
2022/04/25 01:13:57;;;;;;;12.47;5.90;;;10.50;1.00;;;;;;5073405;28;20185;-84
2022/04/25 01:16:22;;;;;;;9.27;5.67;;;10.40;1.00;;;;;;5074792;28;20200;-78
2022/04/25 01:18:49;;;;;;;10.37;5.60;;;10.30;1.00;;;;;;5073975;28;20208;-79
2022/04/25 01:22:06;;;;;;;11.73;6.30;;;10.30;1.00;;;;;;5063044;28;20161;-85
2022/04/25 01:27:18;;;;;;;9.73;6.60;;;10.20;6.20;;;;;;5056111;28;20168;-84
2022/04/25 01:29:54;;;;;;;9.77;6.33;;;10.30;6.10;;;;;;5068019;28;20162;-81
2022/04/25 01:32:26;;;;;;;8.53;5.90;;;10.20;6.50;;;;;;5067719;28;20287;-78
2022/04/25 01:34:52;;;;;;;14.10;6.60;;;10.20;7.00;;;;;;5071217;28;20184;-83
2022/04/25 01:37:19;;;;;;;8.53;5.87;;;10.20;9.60;;;;;;5073832;28;20193;-80
2022/04/25 01:39:49;;;;;;;9.37;6.43;;;10.20;9.70;;;;;;5072599;28;20161;-81
2022/04/25 01:42:16;;;;;;;10.47;6.87;;;10.20;10.60;;;;;;5071181;28;20236;-82
2022/04/25 01:44:43;;;;;;;11.87;7.37;;;10.10;11.60;;;;;;5061059;28;20164;-82
2022/04/25 01:47:09;;;;;;;12.93;7.20;;;10.10;14.70;;;;;;5073126;28;20237;-80
2022/04/25 01:49:36;;;;;;;8.93;6.23;;;10.10;16.20;;;;;;5072086;28;20161;-82
2022/04/25 01:52:24;;;;;;;12.37;7.17;;;10.10;18.00;;;;;;5073188;28;20172;-79
2022/04/25 01:54:50;;;;;;;10.13;6.90;;;10.00;20.20;;;;;;5073579;28;20233;-83
2022/04/25 01:57:17;;;;;;;9.07;6.70;;;10.00;20.80;;;;;;5074716;28;20219;-81
2022/04/25 01:59:44;;;;;;;11.27;6.30;;;10.00;21.40;;;;;;5061592;28;20188;-79
2022/04/25 02:02:14;;;;;;;11.30;6.70;;;10.00;21.40;;;;;;5059724;28;20165;-80
2022/04/25 02:05:03;;;;;;;12.27;7.67;;;9.90;22.40;;;;;;5056701;28;20168;-83
2022/04/25 02:07:47;;;;;;;10.33;6.77;;;9.90;23.70;;;;;;5054524;28;20169;-85
2022/04/25 02:10:13;;;;;;;9.67;6.80;;;9.90;26.00;;;;;;5056766;28;20172;-85
2022/04/25 02:12:39;;;;;;;10.00;6.97;;;9.80;26.20;;;;;;5056152;28;20161;-82
2022/04/25 02:15:12;;;;;;;10.60;7.40;;;9.90;27.10;;;;;;5054272;28;20215;-81
2022/04/25 02:17:38;;;;;;;12.27;7.27;;;9.80;27.00;;;;;;5052523;28;20694;-81
2022/04/25 02:20:04;;;;;;;10.47;7.20;;;9.80;28.10;;;;;;5033992;28;20172;-81
2022/04/25 02:22:35;;;;;;;9.57;7.20;;;9.80;29.60;;;;;;5033218;28;20182;-83
2022/04/25 02:25:01;;;;;;;11.43;7.37;;;9.90;29.20;;;;;;5032652;28;20212;-81
2022/04/25 02:27:28;;;;;;;10.90;7.53;;;9.80;29.60;;;;;;5032827;28;20182;-82
2022/04/25 02:29:57;;;;;;;11.70;7.53;;;9.80;31.80;;;;;;5034585;28;20165;-84
2022/04/25 02:32:27;;;;;;;11.77;8.10;;;9.70;32.10;;;;;;5034310;28;20817;-81
2022/04/25 02:34:54;;;;;;;11.43;7.33;;;9.70;33.90;;;;;;5032310;28;20284;-85
2022/04/25 02:37:25;;;;;;;10.00;8.03;;;9.70;35.50;;;;;;5033703;28;20194;-85
2022/04/25 02:39:50;;;;;;;13.17;8.20;;;9.80;34.70;;;;;;5033207;28;20192;-85
2022/04/25 02:42:16;;;;;;;13.37;8.30;;;9.70;36.10;;;;;;5033762;28;20579;-84
2022/04/25 02:44:42;;;;;;;11.40;8.83;;;9.60;40.10;;;;;;5040283;28;20671;-79
2022/04/25 02:47:08;;;;;;;14.30;8.77;;;9.60;41.10;;;;;;5045873;28;20189;-79
2022/04/25 02:49:34;;;;;;;13.30;8.70;;;9.70;42.20;;;;;;5062640;28;20252;-79
2022/04/25 02:52:00;;;;;;;12.97;9.00;;;9.60;44.30;;;;;;5056279;28;20173;-85
2022/04/25 02:54:28;;;;;;;13.37;8.47;;;9.50;47.40;;;;;;5053971;28;20260;-84
2022/04/25 02:56:56;;;;;;;15.13;8.80;;;9.50;50.00;;;;;;5053119;28;20211;-85
2022/04/25 02:59:22;;;;;;;11.40;8.67;;;9.50;50.30;;;;;;5053335;28;20189;-84
2022/04/25 03:01:49;;;;;;;13.50;9.33;;;9.60;51.10;;;;;;5052941;28;20169;-83
2022/04/25 03:04:14;;;;;;;22.00;10.17;;;9.40;52.30;;;;;;5053263;28;20264;-81
2022/04/25 03:06:40;;;;;;;13.70;10.10;;;9.40;54.00;;;;;;5053031;28;20204;-84
2022/04/25 03:09:06;;;;;;;15.23;10.23;;;9.40;55.20;;;;;;5053101;28;20185;-81
2022/04/25 03:11:34;;;;;;;16.77;9.57;;;9.50;54.00;;;;;;5053397;28;20153;-83
2022/04/25 03:14:00;;;;;;;15.57;9.87;;;9.40;53.50;;;;;;5053675;28;20173;-81
2022/04/25 03:16:28;;;;;;;15.43;10.07;;;9.40;56.50;;;;;;5053106;28;20180;-82
2022/04/25 03:18:54;;;;;;;14.23;11.03;;;9.40;58.20;;;;;;5040086;28;20674;-81
2022/04/25 03:21:20;;;;;;;13.33;10.10;;;9.40;58.90;;;;;;5033610;28;20170;-80
2022/04/25 03:23:46;;;;;;;13.50;10.03;;;9.40;60.30;;;;;;5033094;28;20184;-81
2022/04/25 03:26:12;;;;;;;16.10;10.07;;;9.40;60.70;;;;;;5034374;28;20197;-81
2022/04/25 03:28:38;;;;;;;17.23;10.70;;;9.30;61.90;;;;;;5037228;28;20174;-81
2022/04/25 03:31:07;;;;;;;15.53;11.27;;;9.30;62.90;;;;;;5047440;28;20229;-80
2022/04/25 03:33:35;;;;;;;15.87;10.60;;;9.30;64.40;;;;;;5055523;28;20188;-79
2022/04/25 03:36:01;;;;;;;16.40;11.20;;;9.30;64.00;;;;;;5049824;28;20181;-81
2022/04/25 03:38:28;;;;;;;15.37;11.40;;;9.40;63.90;;;;;;5034975;28;20205;-81
2022/04/25 03:40:54;;;;;;;18.87;11.97;;;9.50;62.70;;;;;;5036383;28;20566;-82
2022/04/25 03:43:20;;;;;;;13.13;10.40;;;9.50;61.50;;;;;;5035201;28;20173;-83
2022/04/25 03:45:47;;;;;;;18.03;11.73;;;9.40;60.70;;;;;;5037046;28;20496;-82
2022/04/25 03:48:12;;;;;;;18.97;11.63;;;9.40;61.40;;;;;;5043272;28;20226;-79
2022/04/25 03:50:38;;;;;;;15.53;12.10;;;9.30;62.60;;;;;;5063101;28;20589;-80
2022/04/25 03:53:06;;;;;;;13.90;12.00;;;9.30;64.30;;;;;;5056678;28;20577;-84
2022/04/25 03:58:20;;;;;;;14.87;12.30;;;9.20;66.60;;;;;;5056831;28;20683;-80
2022/04/25 04:00:46;;;;;;;15.47;11.70;;;9.20;74.40;;;;;;5055638;28;20288;-79
2022/04/25 04:03:14;;;;;;;19.13;12.57;;;9.20;75.30;;;;;;5055817;28;20196;-85
2022/04/25 04:05:41;;;;;;;16.97;12.67;;;9.40;74.50;;;;;;5055918;28;20169;-86
2022/04/25 04:08:07;;;;;;;16.63;13.57;;;9.30;73.90;;;;;;5055949;28;20533;-82
2022/04/25 04:10:32;;;;;;;16.47;12.27;;;9.40;73.80;;;;;;5055361;28;20173;-80
2022/04/25 04:12:59;;;;;;;17.70;13.57;;;9.30;74.30;;;;;;5055418;28;20255;-80
2022/04/25 04:15:25;;;;;;;19.40;13.20;;;9.30;71.40;;;;;;5054220;28;20290;-82
2022/04/25 04:17:52;;;;;;;16.93;13.23;;;9.20;72.50;;;;;;5055180;28;20230;-84
2022/04/25 04:20:18;;;;;;;16.70;13.67;;;9.10;75.40;;;;;;5055800;28;20161;-83
2022/04/25 04:22:43;;;;;;;20.33;14.20;;;9.00;77.80;;;;;;5054000;28;20663;-80
2022/04/25 04:25:14;;;;;;;17.60;13.77;;;9.00;79.60;;;;;;5055630;28;20171;-84
2022/04/25 04:27:41;;;;;;;17.23;14.33;;;9.00;79.00;;;;;;5055615;28;20192;-85
2022/04/25 04:30:11;;;;;;;17.40;13.87;;;8.90;81.70;;;;;;5055166;28;20565;-82
2022/04/25 04:32:40;;;;;;;21.77;14.40;;;8.90;82.80;;;;;;5054787;28;20165;-81
2022/04/25 04:35:11;;;;;;;18.03;14.87;;;8.90;83.80;;;;;;5054008;28;20584;-81
2022/04/25 04:37:38;;;;;;;19.33;14.47;;;8.90;85.60;;;;;;5054448;28;20704;-84
2022/04/25 04:42:50;;;;;;;19.00;15.40;;;8.80;88.20;;;;;;5055491;28;20234;-86
2022/04/25 04:45:15;;;;;;;19.83;15.60;;;8.90;88.50;;;;;;5055982;28;20642;-85
2022/04/25 04:47:41;;;;;;;23.37;14.73;;;8.90;88.30;;;;;;5054857;28;20177;-84
2022/04/25 04:50:10;;;;;;;23.97;15.83;;;9.00;88.70;;;;;;5056077;28;20169;-84
2022/04/25 04:52:36;;;;;;;20.20;16.13;;;9.10;86.90;;;;;;5055462;28;20180;-86
2022/04/25 04:55:02;;;;;;;21.93;16.30;;;9.10;84.60;;;;;;5055658;28;20188;-85
2022/04/25 04:57:28;;;;;;;18.17;16.17;;;9.20;83.30;;;;;;5055602;28;20656;-81
2022/04/25 04:59:53;;;;;;;22.13;16.03;;;9.20;79.50;;;;;;5055155;28;20323;-80
2022/04/25 05:02:19;;;;;;;21.23;17.00;;;9.20;76.20;;;;;;5054994;28;20173;-81
2022/04/25 05:04:45;;;;;;;21.97;16.70;;;9.20;74.00;;;;;;5056981;28;20180;-80
2022/04/25 05:07:11;;;;;;;23.03;17.97;;;9.20;73.50;;;;;;5069390;28;20176;-82
2022/04/25 05:09:36;;;;;;;24.70;17.53;;;9.20;74.20;;;;;;5067004;28;20181;-81
2022/04/25 05:12:05;;;;;;;23.70;17.67;;;9.30;72.30;;;;;;5074609;28;20185;-82
2022/04/25 05:14:32;;;;;;;23.30;18.53;;;9.30;70.50;;;;;;5071829;28;20207;-82
2022/04/25 05:16:58;;;;;;;23.77;18.40;;;9.40;71.90;;;;;;5058814;28;20270;-85
2022/04/25 05:19:23;;;;;;;21.50;17.50;;;9.50;68.70;;;;;;5076178;28;20199;-84
2022/04/25 05:21:49;;;;;;;22.67;18.73;;;9.40;67.30;;;;;;5077190;28;20168;-79
2022/04/25 05:24:15;;;;;;;23.83;18.27;;;9.40;66.30;;;;;;5080385;28;20188;-84
2022/04/25 05:26:40;;;;;;;21.60;18.27;;;9.40;66.70;;;;;;5080361;28;20172;-85
2022/04/25 05:29:08;;;;;;;23.30;18.27;;;9.40;67.60;;;;;;5075286;28;20312;-86
2022/04/25 05:31:34;;;;;;;20.83;16.73;;;9.40;66.30;;;;;;5076758;28;20565;-84
2022/04/25 05:34:02;;;;;;;22.40;17.50;;;9.40;67.00;;;;;;5074681;28;20226;-83
2022/04/25 05:36:28;;;;;;;21.43;16.93;;;9.40;68.10;;;;;;5075255;28;20165;-83
2022/04/25 05:38:53;;;;;;;25.80;17.17;;;9.20;69.90;;;;;;5075028;28;20218;-82
2022/04/25 05:41:19;;;;;;;22.37;16.63;;;9.30;70.10;;;;;;5073824;28;20195;-84
2022/04/25 05:43:45;;;;;;;22.47;16.03;;;9.30;68.60;;;;;;5077453;28;20208;-81
2022/04/25 05:46:11;;;;;;;24.53;16.77;;;9.30;68.20;;;;;;5089754;28;20512;-81
2022/04/25 05:54:05;;;;;;;24.17;16.70;;;9.40;66.70;;;;;;5053568;28;20184;-84
2022/04/25 05:56:37;;;;;;;24.10;16.93;;;9.60;64.00;;;;;;5039388;28;20169;-80
2022/04/25 05:59:02;;;;;;;21.70;16.30;;;9.50;64.50;;;;;;5060408;28;20201;-79
2022/04/25 06:01:29;;;;;;;20.13;15.77;;;9.60;61.90;;;;;;5061837;28;20207;-84
2022/04/25 06:03:55;;;;;;;22.70;16.43;;;9.60;59.40;;;;;;5071882;28;20177;-79
2022/04/25 06:06:23;;;;;;;22.10;16.60;;;9.80;57.80;;;;;;5059133;28;20188;-84
2022/04/25 06:08:50;;;;;;;22.90;15.40;;;9.90;52.00;;;;;;5065714;28;20158;-86
2022/04/25 06:11:21;;;;;;;23.37;14.90;;;9.90;48.70;;;;;;5063639;28;20207;-81
2022/04/25 06:13:50;;;;;;;24.47;16.10;;;9.80;46.50;;;;;;5066156;28;20215;-79
2022/04/25 06:16:16;;;;;;;19.37;14.60;;;9.80;48.50;;;;;;5065000;28;20169;-80
2022/04/25 06:18:42;;;;;;;20.73;15.60;;;10.10;44.10;;;;;;5065429;28;20217;-83
2022/04/25 06:21:08;;;;;;;21.07;14.53;;;10.10;39.10;;;;;;5068954;28;20623;-81
2022/04/25 06:23:33;;;;;;;18.67;15.03;;;10.20;36.00;;;;;;5075244;28;20168;-81
2022/04/25 06:25:59;;;;;;;25.13;15.30;;;10.30;35.30;;;;;;5070884;28;20173;-87
2022/04/25 06:28:29;;;;;;;22.50;14.07;;;10.30;30.40;;;;;;5066999;28;20168;-80
2022/04/25 06:31:00;;;;;;;20.40;14.50;;;10.50;29.70;;;;;;5063777;28;20149;-85
2022/04/25 06:33:26;;;;;;;20.77;15.43;;;10.50;26.80;;;;;;5054739;28;20349;-85
2022/04/25 06:35:52;;;;;;;18.67;14.27;;;10.50;26.30;;;;;;5057145;28;20153;-82
2022/04/25 06:38:18;;;;;;;20.07;12.83;;;10.50;24.40;;;;;;5056743;28;20216;-82
2022/04/25 06:40:46;;;;;;;16.77;13.70;;;10.40;22.60;;;;;;5055331;28;20177;-84
2022/04/25 06:43:16;;;;;;;19.80;14.00;;;10.30;23.10;;;;;;5060755;28;20177;-78
2022/04/25 06:45:42;;;;;;;18.13;12.33;;;10.20;24.00;;;;;;5066115;28;20606;-78
2022/04/25 06:48:08;;;;;;;21.70;13.87;;;10.20;26.00;;;;;;5069823;28;20161;-78
2022/04/25 06:50:34;;;;;;;19.40;13.70;;;10.30;27.10;;;;;;5086820;28;20212;-78
2022/04/25 06:52:59;;;;;;;17.73;12.87;;;10.20;27.60;;;;;;5071885;28;20200;-79
2022/04/25 06:55:25;;;;;;;19.03;12.53;;;10.20;25.20;;;;;;5062119;28;20161;-80
2022/04/25 06:57:53;;;;;;;16.97;12.73;;;10.40;24.70;;;;;;5055852;28;20239;-85
2022/04/25 07:00:19;;;;;;;17.13;13.33;;;10.40;22.00;;;;;;5056307;28;20184;-82
2022/04/25 07:02:46;;;;;;;17.77;13.47;;;10.40;20.30;;;;;;5058595;28;20161;-85
2022/04/25 07:05:15;;;;;;;17.43;12.10;;;10.50;17.60;;;;;;5059535;28;20204;-85
2022/04/25 07:07:44;;;;;;;16.43;12.67;;;10.50;13.60;;;;;;5058059;28;20169;-80
2022/04/25 07:10:10;;;;;;;19.27;13.27;;;10.50;13.00;;;;;;5057675;28;20165;-85
2022/04/25 07:12:36;;;;;;;17.00;12.63;;;10.60;14.80;;;;;;5057473;28;20177;-84
2022/04/25 07:15:02;;;;;;;18.27;11.73;;;10.80;10.50;;;;;;5057904;28;20581;-80
2022/04/25 07:17:28;;;;;;;15.53;12.17;;;10.70;9.90;;;;;;5057334;28;20555;-80
2022/04/25 07:19:55;;;;;;;16.17;11.07;;;10.70;5.80;;;;;;5056562;28;20185;-83
2022/04/25 07:30:35;;;;;;;20.37;13.83;;;10.50;8.50;;;;;;5064083;28;20310;-85
2022/04/25 07:33:02;;;;;;;18.90;14.53;;;10.50;10.80;;;;;;5059576;28;20173;-80
2022/04/25 07:35:28;;;;;;;17.90;14.97;;;10.60;13.10;;;;;;5057520;28;20177;-84
2022/04/25 07:37:55;;;;;;;23.20;15.70;;;10.80;6.10;;;;;;5057282;28;20673;-86
2022/04/25 07:40:22;;;;;;;21.83;15.57;;;10.90;4.80;;;;;;5056507;28;20601;-82
2022/04/25 07:42:48;;;;;;;22.47;14.77;;;11.00;1.00;;;;;;5054755;28;20177;-85
2022/04/25 07:45:14;;;;;;;19.13;15.20;;;10.90;1.00;;;;;;5056220;28;20252;-83
2022/04/25 07:47:43;;;;;;;18.87;15.13;;;10.90;1.00;;;;;;5054699;28;20258;-81
2022/04/25 07:50:12;;;;;;;21.50;14.73;;;11.10;1.00;;;;;;5047974;28;20177;-85
2022/04/25 07:52:38;;;;;;;17.60;15.07;;;11.20;1.00;;;;;;5056939;28;20625;-85
2022/04/25 07:55:05;;;;;;;18.20;15.00;;;11.40;1.00;;;;;;5056598;28;20177;-85
2022/04/25 07:57:31;;;;;;;18.73;14.50;;;11.50;1.00;;;;;;5057574;28;20224;-83
2022/04/25 07:59:59;;;;;;;18.40;14.33;;;11.60;1.00;;;;;;5057209;28;20169;-85
2022/04/25 08:02:24;;;;;;;20.17;14.27;;;11.50;1.00;;;;;;5056597;28;20184;-81
2022/04/25 08:04:50;;;;;;;17.67;13.87;;;11.50;1.00;;;;;;5056749;28;20184;-80
2022/04/25 08:07:16;;;;;;;18.90;14.07;;;11.60;1.00;;;;;;5056837;28;20359;-85
2022/04/25 08:09:42;;;;;;;18.83;13.77;;;11.60;1.00;;;;;;5055021;28;20181;-80
2022/04/25 08:18:04;;;;;;;17.87;13.23;;;11.80;1.00;;;;;;5055954;28;20230;-82
2022/04/25 08:20:35;;;;;;;15.70;12.97;;;11.60;1.00;;;;;;5051854;28;20699;-84
2022/04/25 08:23:03;;;;;;;16.97;13.47;;;11.50;1.00;;;;;;5036390;28;20169;-84
2022/04/25 08:25:30;;;;;;;14.30;12.17;;;11.40;1.00;;;;;;5054647;28;20165;-83
2022/04/25 08:28:00;;;;;;;14.87;11.97;;;11.40;1.00;;;;;;5056586;28;20633;-84
2022/04/25 08:30:26;;;;;;;18.40;11.63;;;11.40;1.00;;;;;;5057386;28;20177;-84
2022/04/25 08:32:55;;;;;;;15.77;11.53;;;11.50;1.00;;;;;;5059661;28;20161;-84
2022/04/25 08:35:21;;;;;;;14.93;11.43;;;11.40;1.00;;;;;;5057224;28;20676;-87
2022/04/25 08:37:47;;;;;;;17.93;12.23;;;11.30;1.00;;;;;;5060271;28;20208;-84
2022/04/25 08:40:13;;;;;;;19.73;13.87;;;11.30;1.00;;;;;;5063163;28;20283;-80
2022/04/25 08:42:39;;;;;;;18.77;13.43;;;11.30;1.00;;;;;;5064116;28;20201;-82
2022/04/25 08:45:06;;;;;;;15.70;13.83;;;11.30;1.00;;;;;;5059851;28;20169;-85
2022/04/25 08:48:00;;;;;;;22.97;14.77;;;11.40;1.00;;;;;;5061104;28;20163;-83
2022/04/25 08:50:27;;;;;;;20.93;14.37;;;11.60;1.00;;;;;;5057737;28;20212;-80
2022/04/25 08:52:56;;;;;;;19.00;14.47;;;11.60;1.00;;;;;;5055035;28;20183;-81
2022/04/25 08:55:22;;;;;;;20.77;13.97;;;11.70;1.00;;;;;;5056387;28;20161;-80
2022/04/25 08:57:51;;;;;;;18.83;14.60;;;11.70;1.00;;;;;;5069316;28;20299;-79
2022/04/25 09:00:17;;;;;;;19.77;14.80;;;11.60;1.00;;;;;;5070487;28;20228;-83
2022/04/25 09:02:47;;;;;;;20.27;15.13;;;11.70;1.00;;;;;;5058276;28;20173;-85
2022/04/25 09:05:21;;;;;;;22.27;14.17;;;11.90;1.00;;;;;;5057287;28;20201;-85
2022/04/25 09:07:48;;;;;;;18.57;13.60;;;11.90;1.00;;;;;;5056526;28;20161;-83
2022/04/25 09:10:19;;;;;;;16.60;12.20;;;11.80;1.00;;;;;;5055382;28;20264;-84
2022/04/25 09:12:46;;;;;;;16.80;13.57;;;11.90;1.00;;;;;;5055414;28;20172;-85
2022/04/25 09:15:15;;;;;;;16.70;13.40;;;11.90;1.00;;;;;;5056204;28;20165;-84
2022/04/25 09:17:41;;;;;;;17.17;14.27;;;12.10;1.00;;;;;;5056067;28;20295;-79
2022/04/25 09:20:08;;;;;;;16.33;12.33;;;12.20;1.00;;;;;;5064101;28;20587;-85
2022/04/25 09:22:42;;;;;;;16.03;11.47;;;12.30;1.00;;;;;;5054680;28;20184;-86
2022/04/25 09:25:11;;;;;;;19.67;12.77;;;12.30;1.00;;;;;;5055231;28;20173;-82
2022/04/25 09:27:39;;;;;;;17.53;12.60;;;12.40;1.00;;;;;;5055485;28;20173;-80
2022/04/25 09:30:34;;;;;;;17.50;12.23;;;12.40;1.00;;;;;;5055226;28;20267;-83
2022/04/25 09:33:00;;;;;;;17.50;14.50;;;12.50;1.00;;;;;;5046114;28;20196;-87
2022/04/25 09:35:33;;;;;;;18.57;13.63;;;12.50;1.00;;;;;;5055376;28;20181;-81
2022/04/25 09:38:05;;;;;;;19.00;11.87;;;12.30;1.00;;;;;;5052307;28;20664;-81
2022/04/25 09:40:37;;;;;;;15.30;11.83;;;12.20;1.00;;;;;;5055715;28;20827;-80
2022/04/25 09:43:14;;;;;;;15.90;12.87;;;12.10;1.00;;;;;;5055673;28;20645;-81
2022/04/25 09:45:42;;;;;;;16.57;12.33;;;12.30;1.00;;;;;;5054350;28;20177;-79
2022/04/25 09:48:23;;;;;;;14.67;11.57;;;12.40;1.00;;;;;;5062674;28;20177;-80
2022/04/25 09:51:02;;;;;;;17.23;12.30;;;12.60;1.00;;;;;;5064884;28;20177;-83
2022/04/25 09:53:46;;;;;;;17.03;11.83;;;12.80;1.00;;;;;;5062906;28;20184;-83
2022/04/25 09:56:25;;;;;;;17.43;12.60;;;12.70;1.00;;;;;;5057212;28;20158;-86
2022/04/25 09:59:02;;;;;;;20.27;12.53;;;12.60;1.00;;;;;;5056832;28;20214;-79
2022/04/25 10:01:29;;;;;;;13.77;11.00;;;12.60;1.00;;;;;;5055483;28;20185;-82
2022/04/25 10:03:56;;;;;;;14.33;12.20;;;13.00;1.00;;;;;;5056195;28;20264;-84
2022/04/25 10:06:23;;;;;;;16.23;11.30;;;12.90;1.00;;;;;;5056699;28;20158;-79
2022/04/25 10:08:51;;;;;;;17.20;12.47;;;13.00;1.00;;;;;;5055547;28;20566;-81
2022/04/25 10:11:19;;;;;;;15.10;11.50;;;13.00;1.00;;;;;;5037973;28;20181;-82
2022/04/25 10:13:46;;;;;;;15.33;11.60;;;13.20;1.00;;;;;;5063177;28;20230;-79
2022/04/25 10:16:12;;;;;;;15.00;10.40;;;12.90;1.00;;;;;;5064822;28;20224;-80
2022/04/25 10:18:39;;;;;;;15.17;12.20;;;12.90;1.00;;;;;;5055899;28;20307;-83
2022/04/25 10:21:09;;;;;;;14.30;11.90;;;12.70;1.00;;;;;;5083120;28;20168;-82
2022/04/25 10:23:34;;;;;;;14.70;12.30;;;12.50;1.00;;;;;;5070671;28;20203;-80
2022/04/25 10:26:01;;;;;;;16.33;13.13;;;12.30;1.00;;;;;;5069637;28;20177;-80
2022/04/25 10:28:50;;;;;;;16.67;12.97;;;12.10;1.00;;;;;;5061090;28;20185;-80
2022/04/25 10:31:30;;;;;;;16.83;13.53;;;11.90;1.00;;;;;;5037516;28;20245;-85
2022/04/25 10:34:02;;;;;;;17.10;13.63;;;11.90;1.00;;;;;;5059408;28;20183;-82
2022/04/25 10:36:37;;;;;;;16.37;14.07;;;11.70;1.00;;;;;;5054247;28;20177;-81
2022/04/25 10:39:27;;;;;;;16.60;13.23;;;11.70;1.00;;;;;;5071322;28;20192;-81
2022/04/25 10:44:45;;;;;;;14.60;12.63;;;11.50;1.00;;;;;;5051717;28;20212;-78
2022/04/25 10:47:15;;;;;;;15.43;13.77;;;11.30;1.00;;;;;;5052738;28;20184;-83
2022/04/25 10:49:46;;;;;;;14.83;12.70;;;11.40;1.00;;;;;;5061630;28;20534;-80
2022/04/25 10:52:42;;;;;;;16.93;13.20;;;11.30;1.00;;;;;;5079096;28;20180;-79
2022/04/25 10:55:23;;;;;;;19.67;13.43;;;11.20;1.00;;;;;;5059313;28;20174;-82
2022/04/25 10:58:05;;;;;;;16.63;12.37;;;11.20;1.00;;;;;;5059252;28;20201;-82
2022/04/25 11:00:37;;;;;;;12.10;10.70;;;11.20;1.00;;;;;;5058054;28;20185;-84
2022/04/25 11:03:27;;;;;;;16.53;13.33;;;11.30;1.00;;;;;;5059708;28;20677;-79
2022/04/25 11:05:57;;;;;;;17.47;12.37;;;11.40;1.00;;;;;;5072689;28;20181;-80
2022/04/25 11:08:25;;;;;;;17.63;13.50;;;11.50;1.00;;;;;;5068114;28;20184;-79
2022/04/25 11:10:56;;;;;;;15.97;12.90;;;11.60;1.00;;;;;;5071290;28;20210;-80
2022/04/25 11:13:25;;;;;;;17.00;13.83;;;11.70;1.00;;;;;;5071137;28;20275;-80
2022/04/25 11:15:53;;;;;;;16.13;14.50;;;11.80;1.00;;;;;;5073212;28;20260;-78
2022/04/25 11:18:23;;;;;;;16.03;14.40;;;11.80;1.00;;;;;;5064417;28;20212;-85
2022/04/25 11:21:13;;;;;;;16.03;14.20;;;11.90;1.00;;;;;;5059865;28;20212;-84
2022/04/25 11:23:44;;;;;;;17.93;14.33;;;11.80;1.00;;;;;;5061345;28;20179;-79
2022/04/25 11:26:36;;;;;;;16.97;13.93;;;11.80;1.00;;;;;;5060426;28;20176;-85
2022/04/25 11:29:09;;;;;;;15.57;13.90;;;11.90;1.00;;;;;;5040721;28;20235;-80
2022/04/25 11:31:39;;;;;;;17.27;15.30;;;12.10;1.00;;;;;;5039832;28;20192;-80
2022/04/25 11:34:11;;;;;;;20.40;14.80;;;12.40;1.00;;;;;;5045720;28;20248;-86
2022/04/25 11:36:44;;;;;;;17.00;12.17;;;12.60;1.00;;;;;;5048786;28;20181;-78
2022/04/25 11:42:18;;;;;;;20.53;13.30;;;12.70;1.00;;;;;;5060061;28;20180;-86
2022/04/25 11:44:46;;;;;;;16.07;13.70;;;12.90;1.00;;;;;;5059896;28;20173;-85
2022/04/25 11:47:12;;;;;;;15.83;12.53;;;12.90;1.00;;;;;;5061275;28;20177;-79
2022/04/25 11:49:38;;;;;;;16.10;13.90;;;13.00;1.00;;;;;;5065404;28;20319;-79
2022/04/25 11:52:05;;;;;;;15.17;13.57;;;13.30;1.00;;;;;;5068895;28;20171;-77
2022/04/25 11:54:32;;;;;;;13.87;12.00;;;13.60;1.00;;;;;;5073511;28;20179;-80
2022/04/25 11:57:17;;;;;;;14.50;10.93;;;13.70;1.00;;;;;;5072186;28;20211;-82
2022/04/25 11:59:43;;;;;;;12.53;10.23;;;13.80;1.00;;;;;;5063662;28;20174;-78
2022/04/25 12:02:09;;;;;;;13.23;10.80;;;13.90;99.90;;;;;;5063595;28;20177;-83
2022/04/25 12:04:42;;;;;;;14.20;11.13;;;13.80;99.90;;;;;;5057604;28;20272;-81
2022/04/25 12:07:11;;;;;;;11.70;9.97;;;13.90;1.00;;;;;;5057037;28;20170;-83
2022/04/25 12:15:34;;;;;;;9.80;7.30;;;12.50;1.00;;;;;;5063229;28;20204;-80
2022/04/25 12:18:17;;;;;;;9.63;8.07;;;12.10;1.00;;;;;;5055753;28;20587;-82
2022/04/25 12:21:04;;;;;;;10.67;8.10;;;12.00;1.00;;;;;;5057160;28;20255;-80
2022/04/25 12:23:33;;;;;;;8.97;7.93;;;11.90;1.00;;;;;;5048333;28;20189;-84
2022/04/25 12:26:03;;;;;;;9.53;8.43;;;12.00;1.00;;;;;;5059687;28;20569;-83
2022/04/25 12:28:31;;;;;;;10.03;8.37;;;12.10;1.00;;;;;;5056749;28;20261;-80
2022/04/25 12:30:59;;;;;;;11.40;7.53;;;12.10;1.00;;;;;;5058639;28;20161;-81
2022/04/25 12:33:32;;;;;;;10.43;7.67;;;12.00;1.00;;;;;;5058529;28;20164;-80
2022/04/25 12:36:25;;;;;;;11.27;8.90;;;11.90;1.00;;;;;;5057117;28;20165;-81
2022/04/25 12:38:52;;;;;;;10.23;8.57;;;11.80;1.00;;;;;;5050975;28;20731;-81
2022/04/25 12:41:26;;;;;;;10.30;9.00;;;11.70;1.00;;;;;;5055584;28;20169;-83
2022/04/25 12:43:54;;;;;;;12.00;9.90;;;11.70;1.00;;;;;;5056301;28;20169;-79
2022/04/25 12:46:44;;;;;;;9.93;8.83;;;11.80;1.00;;;;;;5055779;28;20178;-81
2022/04/25 12:49:13;;;;;;;9.67;7.83;;;11.80;1.00;;;;;;5058470;28;20267;-81
2022/04/25 12:51:55;;;;;;;9.50;7.87;;;11.70;1.00;;;;;;5054204;28;20184;-81
2022/04/25 12:54:37;;;;;;;11.30;9.23;;;11.90;1.00;;;;;;5056294;28;20507;-82
2022/04/25 12:57:20;;;;;;;10.00;6.87;;;12.00;1.00;;;;;;5055241;28;20509;-83
2022/04/25 12:59:58;;;;;;;8.47;6.70;;;11.80;1.00;;;;;;5054918;28;20234;-84
2022/04/25 13:02:32;;;;;;;7.60;6.63;;;11.80;1.00;;;;;;5054398;28;20263;-81
2022/04/25 13:04:59;;;;;;;7.57;6.53;;;12.10;1.00;;;;;;5054895;28;20181;-85
2022/04/25 13:07:30;;;;;;;8.73;7.67;;;12.60;1.00;;;;;;5053807;28;20181;-84
2022/04/25 13:10:05;;;;;;;9.77;8.10;;;12.80;1.00;;;;;;5056735;28;20258;-82
2022/04/25 13:12:35;;;;;;;9.33;8.30;;;13.10;1.00;;;;;;5055541;28;20180;-80
2022/04/25 13:15:03;;;;;;;10.73;9.47;;;13.20;1.00;;;;;;5054679;28;20169;-85
2022/04/25 13:17:29;;;;;;;13.10;9.53;;;13.40;1.00;;;;;;5059596;28;20224;-84
2022/04/25 13:19:54;;;;;;;14.77;11.77;;;13.50;1.00;;;;;;5054631;28;20175;-86
2022/04/25 13:22:20;;;;;;;12.53;11.13;;;13.60;1.00;;;;;;5059454;28;20169;-80
2022/04/25 13:24:46;;;;;;;14.43;12.17;;;13.70;1.00;;;;;;5058937;28;20182;-85
2022/04/25 13:27:13;;;;;;;17.37;12.90;;;13.80;1.00;;;;;;5057602;28;20203;-83
2022/04/25 13:29:39;;;;;;;12.23;10.93;;;13.90;1.00;;;;;;5060737;28;20181;-80